Time;durP1;ratioP1;P1;durP2;ratioP2;P2;SDS_P1;SDS_P2;PMS_P1;PMS_P2;Temp;Humidity;BMP_temperature;BMP_pressure;BME280_temperature;BME280_humidity;BME280_pressure;Samples;Min_cycle;Max_cycle;Signal;HPM_P1;HPM_P2
2023/04/14 00:00:40;;;;;;;5.53;2.33;;;;;;;1.27;100.00;100676.22;10370962;28;20394;-75
2023/04/14 00:05:40;;;;;;;8.40;3.17;;;;;;;1.20;100.00;100678.13;10363589;28;20038;-74
2023/04/14 00:10:41;;;;;;;9.38;3.75;;;;;;;1.09;100.00;100675.56;10373413;28;20396;-75
2023/04/14 00:15:41;;;;;;;6.25;3.22;;;;;;;0.97;100.00;100674.56;10384785;28;20037;-75
2023/04/14 00:20:42;;;;;;;6.00;3.70;;;;;;;0.86;100.00;100674.56;10352450;28;20072;-76
2023/04/14 00:25:42;;;;;;;13.32;3.90;;;;;;;0.80;100.00;100680.91;10365142;28;20050;-74
2023/04/14 00:30:43;;;;;;;5.03;1.83;;;;;;;0.67;100.00;100685.03;10384945;28;20048;-74
2023/04/14 00:35:43;;;;;;;9.73;3.05;;;;;;;0.67;100.00;100681.53;10398770;28;20077;-74
2023/04/14 00:40:44;;;;;;;5.95;2.58;;;;;;;0.64;100.00;100684.78;10383653;28;20040;-75
2023/04/14 00:45:45;;;;;;;7.57;3.10;;;;;;;0.69;100.00;100692.88;10391108;28;20048;-75
2023/04/14 00:50:45;;;;;;;11.88;2.72;;;;;;;0.64;100.00;100686.44;10382293;28;20060;-74
2023/04/14 00:55:46;;;;;;;6.10;2.83;;;;;;;0.53;100.00;100686.41;10384364;28;20026;-74
2023/04/14 01:00:52;;;;;;;6.32;2.58;;;;;;;0.40;100.00;100694.78;10388115;28;20180;-75
2023/04/14 01:05:53;;;;;;;7.40;3.08;;;;;;;0.29;100.00;100696.44;10401832;28;20051;-75
2023/04/14 01:11:00;;;;;;;7.68;2.40;;;;;;;0.18;100.00;100709.16;10365755;28;20048;-75
2023/04/14 01:16:12;;;;;;;8.13;2.83;;;;;;;0.19;100.00;100710.97;10338814;28;20505;-75
2023/04/14 01:21:13;;;;;;;11.20;4.67;;;;;;;0.15;100.00;100712.34;10371465;28;20049;-74
2023/04/14 01:26:28;;;;;;;11.07;4.43;;;;;;;0.12;100.00;100719.81;10416512;28;20046;-75
2023/04/14 01:31:29;;;;;;;15.18;4.50;;;;;;;0.15;100.00;100722.66;10383376;28;20029;-75
2023/04/14 01:36:33;;;;;;;15.70;3.97;;;;;;;0.22;100.00;100721.53;10334712;28;20042;-74
2023/04/14 01:41:36;;;;;;;9.10;3.60;;;;;;;0.14;100.00;100716.63;10381275;28;20041;-74
2023/04/14 01:46:36;;;;;;;10.15;5.75;;;;;;;0.05;100.00;100723.53;10383964;28;20099;-74
2023/04/14 01:51:37;;;;;;;20.08;3.70;;;;;;;-0.18;100.00;100729.22;10387705;28;20072;-74
2023/04/14 01:56:38;;;;;;;11.97;3.60;;;;;;;-0.33;100.00;100727.09;10358227;28;20065;-74
2023/04/14 02:01:38;;;;;;;8.80;3.72;;;;;;;-0.29;100.00;100733.44;10400099;28;20129;-75
2023/04/14 02:06:39;;;;;;;7.60;3.15;;;;;;;-0.29;100.00;100743.72;10352605;28;20049;-75
2023/04/14 02:11:40;;;;;;;9.85;3.17;;;;;;;-0.31;100.00;100752.97;10373402;28;20124;-74
2023/04/14 02:16:40;;;;;;;16.23;4.63;;;;;;;-0.28;100.00;100752.31;10362131;28;20522;-74
2023/04/14 02:21:41;;;;;;;19.77;5.20;;;;;;;-0.22;100.00;100748.66;10382301;28;20064;-74
2023/04/14 02:26:53;;;;;;;11.90;4.88;;;;;;;-0.31;100.00;100745.25;10366576;28;20125;-74
2023/04/14 02:31:57;;;;;;;10.27;4.40;;;;;;;-0.30;100.00;100753.09;10415423;28;20041;-74
2023/04/14 02:37:00;;;;;;;11.10;5.00;;;;;;;-0.27;100.00;100748.97;10377650;28;20041;-74
2023/04/14 02:42:04;;;;;;;15.23;7.72;;;;;;;-0.25;100.00;100761.22;10352494;28;20041;-74
2023/04/14 02:47:09;;;;;;;18.35;6.35;;;;;;;-0.25;100.00;100750.03;10412538;28;20052;-75
2023/04/14 02:52:10;;;;;;;18.25;6.03;;;;;;;-0.21;100.00;100754.69;10407021;28;20119;-75
2023/04/14 02:57:11;;;;;;;13.90;6.03;;;;;;;-0.36;100.00;100752.53;10429656;28;20049;-74
2023/04/14 03:02:12;;;;;;;14.18;4.80;;;;;;;-0.39;100.00;100752.28;10396107;28;20088;-74
2023/04/14 03:07:13;;;;;;;25.48;7.43;;;;;;;-0.47;100.00;100761.88;10381474;28;20050;-74
2023/04/14 03:12:14;;;;;;;12.13;5.13;;;;;;;-0.53;100.00;100755.28;10410155;28;20034;-73
2023/04/14 03:17:16;;;;;;;12.48;4.55;;;;;;;-0.57;100.00;100766.97;10383416;28;20842;-73
2023/04/14 03:22:18;;;;;;;11.10;4.47;;;;;;;-0.58;100.00;100762.59;10374411;28;20129;-73
2023/04/14 03:27:24;;;;;;;16.05;6.53;;;;;;;-0.61;100.00;100768.34;10359117;28;20048;-73
2023/04/14 03:32:25;;;;;;;16.13;5.28;;;;;;;-0.72;100.00;100763.00;10376438;28;20049;-72
2023/04/14 03:37:26;;;;;;;15.35;5.68;;;;;;;-0.89;100.00;100763.25;10420309;28;20100;-74
2023/04/14 03:42:30;;;;;;;9.43;5.17;;;;;;;-0.95;100.00;100751.53;10347397;28;20444;-74
2023/04/14 03:47:31;;;;;;;10.63;5.50;;;;;;;-0.89;100.00;100758.09;10375313;28;20062;-74
2023/04/14 03:52:32;;;;;;;11.00;6.37;;;;;;;-0.84;100.00;100766.25;10387284;28;20446;-74
2023/04/14 03:57:33;;;;;;;12.15;6.55;;;;;;;-0.85;100.00;100759.31;10358442;28;20505;-74
2023/04/14 04:02:33;;;;;;;17.13;6.60;;;;;;;-0.89;100.00;100757.22;10379568;28;20136;-73
2023/04/14 04:07:34;;;;;;;20.85;4.32;;;;;;;-0.86;100.00;100756.59;10370038;28;21303;-73
2023/04/14 04:12:35;;;;;;;11.02;5.00;;;;;;;-0.90;100.00;100764.00;10390326;28;20375;-73
2023/04/14 04:17:35;;;;;;;11.23;6.63;;;;;;;-0.96;100.00;100754.84;10363681;28;20136;-73
2023/04/14 04:22:37;;;;;;;13.02;6.10;;;;;;;-1.05;100.00;100755.81;10395242;28;20503;-73
2023/04/14 04:27:37;;;;;;;;;;;;;;;-1.13;100.00;100755.84;10371610;28;20158;-72
2023/04/14 04:32:38;;;;;;;9.96;5.62;;;;;;;-1.31;100.00;100752.50;10363748;28;19951;-73
2023/04/14 04:37:38;;;;;;;19.93;6.13;;;;;;;-1.42;100.00;100754.03;10369988;28;20050;-76
2023/04/14 04:42:45;;;;;;;17.92;7.55;;;;;;;-1.43;100.00;100762.50;10396042;28;20068;-73
2023/04/14 04:47:46;;;;;;;10.90;6.03;;;;;;;-1.44;100.00;100770.97;10361247;28;20033;-72
2023/04/14 04:52:47;;;;;;;18.37;6.83;;;;;;;-1.38;100.00;100759.63;10368443;28;20117;-73
2023/04/14 04:57:47;;;;;;;18.70;7.20;;;;;;;-1.26;100.00;100766.66;10367793;28;20485;-73
2023/04/14 05:02:48;;;;;;;14.75;6.47;;;;;;;-1.28;100.00;100766.50;10351638;28;20092;-73
2023/04/14 05:07:48;;;;;;;15.82;6.80;;;;;;;-1.24;100.00;100770.28;10382529;28;20037;-72
2023/04/14 05:12:49;;;;;;;14.52;7.45;;;;;;;-1.07;100.00;100767.63;10421798;28;20084;-73
2023/04/14 05:17:50;;;;;;;13.82;7.97;;;;;;;-0.87;100.00;100767.63;10372951;28;20500;-73
2023/04/14 05:22:50;;;;;;;19.98;8.95;;;;;;;-0.68;100.00;100773.69;10383314;28;20065;-73
2023/04/14 05:27:51;;;;;;;14.27;7.70;;;;;;;-0.43;100.00;100780.16;10401287;28;20087;-73
2023/04/14 05:32:51;;;;;;;14.35;8.50;;;;;;;-0.03;100.00;100779.47;10359233;28;20180;-73
2023/04/14 05:37:52;;;;;;;12.95;6.97;;;;;;;0.42;100.00;100772.16;10350160;28;20069;-74
2023/04/14 05:42:52;;;;;;;23.20;7.13;;;;;;;0.92;100.00;100776.38;10358386;28;20077;-73
2023/04/14 05:47:53;;;;;;;18.90;7.25;;;;;;;1.57;100.00;100772.34;10370292;28;20119;-73
2023/04/14 05:52:53;;;;;;;11.90;5.63;;;;;;;2.05;100.00;100776.19;10399773;28;20076;-73
2023/04/14 05:57:54;;;;;;;10.48;4.93;;;;;;;2.75;100.00;100760.06;10381111;28;20073;-73
2023/04/14 06:02:54;;;;;;;9.13;5.20;;;;;;;3.45;100.00;100771.38;10378861;28;20080;-73
2023/04/14 06:07:55;;;;;;;10.25;4.18;;;;;;;4.60;100.00;100764.03;10357733;28;20450;-73
2023/04/14 06:12:55;;;;;;;8.25;4.78;;;;;;;6.57;100.00;100748.38;10360858;28;20137;-73
2023/04/14 06:17:56;;;;;;;6.95;2.72;;;;;;;7.67;100.00;100732.22;10366258;28;20508;-73
2023/04/14 06:22:59;;;;;;;11.20;3.40;;;;;;;8.80;100.00;100726.25;10395240;28;20422;-73
2023/04/14 06:28:02;;;;;;;9.85;4.30;;;;;;;9.81;100.00;100728.69;10400015;28;20041;-74
2023/04/14 06:33:03;;;;;;;5.93;2.60;;;;;;;10.71;100.00;100718.88;10414269;28;20100;-73
2023/04/14 06:38:04;;;;;;;10.07;2.72;;;;;;;11.23;100.00;100728.13;10397915;28;20065;-73
2023/04/14 06:43:06;;;;;;;6.07;2.42;;;;;;;11.71;100.00;100716.09;10387789;28;20040;-73
2023/04/14 06:48:06;;;;;;;7.57;3.42;;;;;;;12.47;100.00;100703.31;10355730;28;20095;-74
2023/04/14 06:53:08;;;;;;;8.75;2.25;;;;;;;13.39;90.79;100707.41;10356964;28;20161;-74
2023/04/14 06:58:08;;;;;;;7.57;3.17;;;;;;;13.94;84.52;100710.97;10353364;28;20033;-74
2023/04/14 07:03:09;;;;;;;7.50;2.38;;;;;;;14.72;79.72;100708.03;10357481;28;20092;-74
2023/04/14 07:08:09;;;;;;;10.47;3.03;;;;;;;15.57;78.13;100696.16;10371702;28;20172;-74
2023/04/14 07:13:10;;;;;;;10.73;3.03;;;;;;;16.21;72.26;100695.00;10366364;28;20061;-74
2023/04/14 07:18:10;;;;;;;6.37;2.50;;;;;;;16.03;68.44;100698.13;10372352;28;20501;-73
2023/04/14 07:23:11;;;;;;;5.03;2.30;;;;;;;15.85;67.99;100697.69;10397598;28;20065;-74
2023/04/14 07:28:12;;;;;;;3.77;2.60;;;;;;;15.16;69.41;100694.25;10371944;28;20049;-74
2023/04/14 07:33:17;;;;;;;5.67;2.90;;;;;;;15.61;74.21;100684.84;10406323;28;20060;-74
2023/04/14 07:38:18;;;;;;;12.15;3.40;;;;;;;16.22;68.74;100691.50;10369506;28;20042;-74
2023/04/14 07:43:18;;;;;;;5.97;3.17;;;;;;;16.01;68.35;100682.25;10365025;28;20042;-74
2023/04/14 07:48:20;;;;;;;10.23;4.57;;;;;;;16.31;66.95;100675.84;10379171;28;20065;-74
2023/04/14 07:53:20;;;;;;;10.38;2.67;;;;;;;17.34;66.24;100685.75;10364826;28;20038;-73
2023/04/14 07:58:21;;;;;;;7.60;3.00;;;;;;;17.09;60.43;100678.28;10374054;28;20034;-75
2023/04/14 08:03:21;;;;;;;5.33;2.97;;;;;;;17.98;63.11;100685.88;10401465;28;20393;-75
2023/04/14 08:08:23;;;;;;;6.30;2.60;;;;;;;18.38;57.80;100682.00;10323542;28;20060;-75
2023/04/14 08:13:23;;;;;;;7.03;3.55;;;;;;;17.43;58.55;100684.16;10320436;28;20129;-75
2023/04/14 08:18:24;;;;;;;7.60;2.37;;;;;;;17.76;57.84;100679.34;10403167;28;20033;-75
2023/04/14 08:23:25;;;;;;;6.50;2.53;;;;;;;18.25;58.29;100678.28;10436874;28;20457;-75
2023/04/14 08:28:27;;;;;;;7.80;2.10;;;;;;;18.07;53.93;100684.25;10403212;28;20556;-75
2023/04/14 08:33:27;;;;;;;;;;;;;;;18.34;55.99;100667.81;10434785;28;20033;-74
2023/04/14 08:38:28;;;;;;;4.88;2.05;;;;;;;19.39;53.76;100673.38;10402546;28;20626;-75
2023/04/14 08:43:28;;;;;;;11.27;2.63;;;;;;;18.70;52.38;100668.25;10402397;28;20113;-75
2023/04/14 08:48:30;;;;;;;9.60;1.90;;;;;;;18.20;50.53;100667.66;10401520;28;20065;-75
2023/04/14 08:53:31;;;;;;;4.85;1.55;;;;;;;18.17;53.07;100660.53;10418813;28;20381;-74
2023/04/14 08:58:31;;;;;;;5.30;1.67;;;;;;;18.76;52.88;100671.84;10417825;28;20473;-75
2023/04/14 09:03:32;;;;;;;3.83;1.50;;;;;;;18.49;51.68;100660.06;10386267;28;20123;-74
2023/04/14 09:08:32;;;;;;;5.65;1.60;;;;;;;18.27;50.00;100664.22;10400613;28;20048;-75
2023/04/14 09:13:33;;;;;;;7.30;3.50;;;;;;;18.78;47.59;100664.78;10400896;28;20112;-74
2023/04/14 09:18:33;;;;;;;5.73;2.43;;;;;;;19.21;45.32;100652.84;10401518;28;20029;-74
2023/04/14 09:23:34;;;;;;;4.87;1.50;;;;;;;18.80;46.07;100656.88;10401541;28;20116;-75
2023/04/14 09:28:35;;;;;;;5.83;2.33;;;;;;;19.02;47.35;100644.72;10399727;28;20433;-74
2023/04/14 09:33:42;;;;;;;10.90;2.60;;;;;;;19.25;45.85;100644.03;10433825;28;20045;-75
2023/04/14 09:38:43;;;;;;;7.72;1.55;;;;;;;19.59;45.65;100646.97;10383945;28;20492;-74
2023/04/14 09:43:44;;;;;;;5.72;1.58;;;;;;;20.59;44.00;100635.06;10375666;28;20124;-74
2023/04/14 09:48:54;;;;;;;4.78;2.03;;;;;;;19.84;41.51;100639.16;10360744;28;20030;-74
2023/04/14 09:54:03;;;;;;;11.15;4.57;;;;;;;20.34;42.08;100631.44;10349054;28;20046;-74
2023/04/14 09:59:04;;;;;;;10.18;2.75;;;;;;;20.35;41.15;100622.59;10349743;28;20117;-74
2023/04/14 10:04:05;;;;;;;4.78;2.03;;;;;;;20.12;40.44;100620.72;10330072;28;20046;-76
2023/04/14 10:09:05;;;;;;;4.73;1.50;;;;;;;19.85;40.40;100619.69;10383290;28;20112;-76
2023/04/14 10:14:06;;;;;;;5.53;1.10;;;;;;;20.79;39.93;100616.53;10409177;28;20084;-75
2023/04/14 10:19:07;;;;;;;7.72;1.77;;;;;;;20.62;39.71;100612.91;10363295;28;20065;-76
2023/04/14 10:24:07;;;;;;;5.67;1.40;;;;;;;21.10;41.05;100583.75;10360418;28;20070;-73
2023/04/14 10:29:08;;;;;;;4.43;1.47;;;;;;;21.15;40.02;100589.06;10314765;28;20078;-73
2023/04/14 10:34:12;;;;;;;3.10;1.10;;;;;;;21.25;41.72;100580.19;10338223;28;20068;-73
2023/04/14 10:39:13;;;;;;;7.03;2.17;;;;;;;21.67;38.60;100580.16;10327711;28;20402;-73
2023/04/14 10:44:33;;;;;;;4.00;1.38;;;;;;;20.94;40.56;100572.22;10305868;28;20057;-73
2023/04/14 10:49:37;;;;;;;5.93;1.45;;;;;;;21.52;39.76;100567.72;10350994;28;20141;-73
2023/04/14 10:54:53;;;;;;;3.58;1.40;;;;;;;22.56;39.08;100553.97;10341082;28;20489;-73
2023/04/14 11:00:00;;;;;;;7.70;1.20;;;;;;;20.53;41.08;100561.50;10371186;28;20444;-73
2023/04/14 11:05:04;;;;;;;4.95;1.80;;;;;;;19.95;39.84;100549.81;10379815;28;20497;-73
2023/04/14 11:10:20;;;;;;;3.25;1.10;;;;;;;20.38;38.70;100541.13;10369760;28;20116;-73
2023/04/14 11:15:20;;;;;;;5.57;2.95;;;;;;;21.17;39.15;100542.94;10365809;28;20382;-73
2023/04/14 11:20:21;;;;;;;4.93;1.30;;;;;;;21.88;39.50;100538.34;10403221;28;20038;-74
2023/04/14 11:25:22;;;;;;;4.15;1.55;;;;;;;21.14;39.43;100537.63;10405413;28;20029;-73
2023/04/14 11:30:22;;;;;;;6.63;1.60;;;;;;;21.82;39.55;100525.91;10367533;28;20064;-74
2023/04/14 11:35:24;;;;;;;5.75;2.38;;;;;;;22.05;37.98;100519.59;10406353;28;20469;-73
2023/04/14 11:40:26;;;;;;;3.92;2.13;;;;;;;22.71;40.49;100523.63;10386444;28;20037;-74
2023/04/14 11:45:29;;;;;;;8.85;1.52;;;;;;;23.73;39.94;100522.63;10437749;28;20056;-73
2023/04/14 11:50:32;;;;;;;9.18;2.33;;;;;;;22.53;36.19;100524.69;10404420;28;20033;-73
2023/04/14 11:55:33;;;;;;;6.13;2.20;;;;;;;22.29;38.70;100507.91;10402799;28;20030;-73
2023/04/14 12:00:34;;;;;;;4.30;2.15;;;;;;;22.88;37.06;100510.16;10403789;28;20083;-74
2023/04/14 12:05:34;;;;;;;6.40;2.77;;;;;;;21.68;38.24;100507.34;10404016;28;20116;-74
2023/04/14 12:10:36;;;;;;;9.48;2.25;;;;;;;21.84;39.47;100502.81;10401544;28;20747;-73
2023/04/14 12:15:40;;;;;;;4.10;1.30;;;;;;;20.65;39.52;100495.94;10391920;28;20077;-73
2023/04/14 12:20:50;;;;;;;3.65;1.80;;;;;;;20.54;42.74;100495.94;10378306;28;20381;-73
2023/04/14 12:25:50;;;;;;;7.75;1.90;;;;;;;20.87;38.88;100488.88;10403373;28;20481;-73
2023/04/14 12:30:51;;;;;;;4.85;1.80;;;;;;;22.72;38.03;100488.97;10400791;28;20128;-73
2023/04/14 12:35:52;;;;;;;7.07;2.03;;;;;;;21.25;37.25;100493.25;10435325;28;20033;-73
2023/04/14 12:40:53;;;;;;;2.50;1.20;;;;;;;18.46;40.46;100489.56;10400532;28;20037;-74
2023/04/14 12:45:54;;;;;;;4.38;1.52;;;;;;;17.03;43.75;100490.47;10402841;28;20087;-74
2023/04/14 12:51:09;;;;;;;4.20;1.45;;;;;;;16.11;44.68;100490.66;10400029;28;20571;-74
2023/04/14 12:56:10;;;;;;;4.72;1.35;;;;;;;17.75;44.58;100490.56;10392732;28;20052;-73
2023/04/14 13:01:11;;;;;;;4.30;2.08;;;;;;;20.33;39.79;100471.13;10378558;28;20128;-73
2023/04/14 13:06:16;;;;;;;1.98;1.48;;;;;;;22.21;36.29;100467.97;10398200;28;20036;-73
2023/04/14 13:11:17;;;;;;;3.72;1.52;;;;;;;21.22;37.28;100471.06;10384554;28;20100;-73
2023/04/14 13:16:18;;;;;;;4.10;1.17;;;;;;;22.03;36.81;100463.66;10384844;28;20121;-74
2023/04/14 13:21:18;;;;;;;12.70;2.40;;;;;;;21.38;35.94;100459.50;10385812;28;20488;-74
2023/04/14 13:26:19;;;;;;;1.53;0.80;;;;;;;18.98;40.58;100457.31;10401603;28;20112;-74
2023/04/14 13:31:20;;;;;;;4.27;1.97;;;;;;;19.44;42.11;100467.31;10399405;28;20385;-73
2023/04/14 13:36:21;;;;;;;4.80;1.88;;;;;;;20.13;38.94;100455.16;10399166;28;20501;-73
2023/04/14 13:41:22;;;;;;;5.20;1.90;;;;;;;18.99;39.80;100445.81;10398868;28;20061;-74
2023/04/14 13:46:22;;;;;;;5.00;1.25;;;;;;;19.75;39.96;100439.97;10399942;28;20124;-73
2023/04/14 13:51:23;;;;;;;6.00;1.20;;;;;;;20.24;38.90;100433.91;10399014;28;20392;-73
2023/04/14 13:56:24;;;;;;;3.80;1.60;;;;;;;18.17;39.86;100439.84;10401035;28;20168;-74
2023/04/14 14:01:25;;;;;;;4.25;1.55;;;;;;;16.14;43.72;100444.06;10399308;28;20042;-73
2023/04/14 14:06:26;;;;;;;4.90;1.35;;;;;;;15.40;45.69;100435.59;10401445;28;20045;-74
2023/04/14 14:11:26;;;;;;;4.20;1.45;;;;;;;15.45;47.54;100429.53;10397714;28;20041;-73
2023/04/14 14:16:27;;;;;;;5.75;1.98;;;;;;;15.22;49.72;100424.66;10400941;28;20037;-73
2023/04/14 14:21:27;;;;;;;3.85;2.97;;;;;;;15.10;49.46;100423.53;10398049;28;20388;-73
2023/04/14 14:26:28;;;;;;;6.22;1.25;;;;;;;14.94;51.08;100416.13;10370329;28;20077;-73
2023/04/14 14:31:28;;;;;;;6.50;1.60;;;;;;;15.78;48.38;100407.31;10403738;28;20057;-74
2023/04/14 14:36:29;;;;;;;9.77;1.35;;;;;;;15.30;49.31;100411.63;10368229;28;20120;-73
2023/04/14 14:41:30;;;;;;;6.85;1.40;;;;;;;14.73;51.16;100401.63;10386250;28;20041;-73
2023/04/14 14:46:30;;;;;;;4.45;1.25;;;;;;;13.98;52.22;100414.66;10407621;28;20084;-74
2023/04/14 14:51:31;;;;;;;7.03;1.77;;;;;;;13.68;51.87;100409.47;10406278;28;20033;-74
2023/04/14 14:56:31;;;;;;;6.15;1.27;;;;;;;13.63;53.39;100414.59;10390541;28;20104;-74
2023/04/14 15:01:32;;;;;;;8.60;1.10;;;;;;;13.73;54.09;100405.22;10408400;28;20049;-73
2023/04/14 15:06:32;;;;;;;4.50;0.90;;;;;;;13.98;53.83;100412.03;10385884;28;20136;-73
2023/04/14 15:11:33;;;;;;;7.53;2.60;;;;;;;15.18;52.41;100392.06;10406825;28;20033;-73
2023/04/14 15:16:33;;;;;;;5.68;2.45;;;;;;;16.73;48.48;100389.56;10406918;28;20137;-73
2023/04/14 15:21:34;;;;;;;5.00;1.45;;;;;;;17.84;45.83;100386.53;10404778;28;20052;-75
2023/04/14 15:26:34;;;;;;;5.43;1.48;;;;;;;18.00;45.06;100378.78;10404100;28;20053;-75
2023/04/14 15:31:35;;;;;;;7.07;1.40;;;;;;;17.12;45.63;100392.78;10403366;28;20072;-76
2023/04/14 15:36:36;;;;;;;3.78;1.83;;;;;;;15.36;48.44;100390.66;10406009;28;20131;-74
2023/04/14 15:41:36;;;;;;;4.40;1.33;;;;;;;14.59;51.58;100398.63;10402470;28;20053;-73
2023/04/14 15:46:37;;;;;;;3.72;1.50;;;;;;;14.38;51.81;100399.00;10403766;28;20136;-74
2023/04/14 15:51:37;;;;;;;3.20;1.00;;;;;;;14.63;50.94;100384.66;10391498;28;20123;-73
2023/04/14 15:56:38;;;;;;;9.80;1.98;;;;;;;14.94;53.95;100387.16;10381160;28;20418;-73
2023/04/14 16:01:39;;;;;;;4.60;1.40;;;;;;;14.83;51.73;100395.72;10403175;28;20493;-74
2023/04/14 16:06:39;;;;;;;6.20;1.20;;;;;;;14.35;49.98;100391.03;10370880;28;20524;-74
2023/04/14 16:11:40;;;;;;;2.05;1.00;;;;;;;14.16;51.84;100397.56;10370381;28;20038;-73
2023/04/14 16:16:45;;;;;;;4.65;1.50;;;;;;;14.06;52.74;100389.44;10406289;28;20129;-73
2023/04/14 16:21:46;;;;;;;3.38;1.20;;;;;;;13.94;51.67;100391.75;10366334;28;20077;-73
2023/04/14 16:26:46;;;;;;;4.80;1.30;;;;;;;13.93;52.58;100389.97;10332221;28;20190;-74
2023/04/14 16:31:47;;;;;;;3.35;1.45;;;;;;;13.91;51.16;100389.03;10365747;28;20072;-74
2023/04/14 16:36:48;;;;;;;5.15;1.13;;;;;;;13.92;51.81;100383.81;10374251;28;20041;-75
2023/04/14 16:41:48;;;;;;;5.05;1.00;;;;;;;13.89;51.53;100389.00;10372482;28;20045;-74
2023/04/14 16:46:49;;;;;;;7.82;1.30;;;;;;;13.92;51.00;100388.19;10380242;28;20033;-74
2023/04/14 16:51:49;;;;;;;3.33;1.30;;;;;;;13.81;51.62;100390.53;10385185;28;20068;-74
2023/04/14 16:56:51;;;;;;;9.60;1.52;;;;;;;13.52;53.42;100374.88;10370865;28;20080;-74
2023/04/14 17:01:52;;;;;;;10.93;1.40;;;;;;;13.21;54.13;100389.72;10384953;28;20192;-76
2023/04/14 17:06:52;;;;;;;9.05;2.30;;;;;;;12.78;55.21;100379.72;10371715;28;20100;-74
2023/04/14 17:11:53;;;;;;;21.15;11.48;;;;;;;12.52;55.90;100384.13;10391419;28;20128;-76
2023/04/14 17:16:54;;;;;;;12.82;4.80;;;;;;;12.33;57.05;100386.16;10385378;28;20124;-75
2023/04/14 17:21:54;;;;;;;6.15;2.17;;;;;;;12.17;57.54;100389.13;10398864;28;20038;-74
2023/04/14 17:26:56;;;;;;;12.50;8.15;;;;;;;11.97;59.87;100394.53;10396204;28;20049;-76
2023/04/14 17:31:56;;;;;;;3.47;1.10;;;;;;;11.88;60.84;100387.28;10382825;28;22078;-73
2023/04/14 17:36:57;;;;;;;6.50;1.02;;;;;;;11.78;61.40;100392.13;10361089;28;20061;-73
2023/04/14 17:41:58;;;;;;;3.10;1.05;;;;;;;11.48;69.20;100393.72;10371110;28;20042;-73
2023/04/14 17:47:02;;;;;;;2.83;1.00;;;;;;;11.21;67.99;100394.47;10386731;28;20175;-73
2023/04/14 17:52:02;;;;;;;5.32;1.63;;;;;;;10.89;71.49;100394.16;10432576;28;20037;-74
2023/04/14 17:57:03;;;;;;;5.32;0.85;;;;;;;10.50;74.30;100395.22;10347614;28;20128;-73
2023/04/14 18:02:03;;;;;;;6.05;3.03;;;;;;;10.25;79.84;100401.16;10372343;28;20095;-74
2023/04/14 18:07:05;;;;;;;3.92;1.50;;;;;;;10.03;85.13;100410.72;10350563;28;20040;-73
2023/04/14 18:12:06;;;;;;;1.87;0.83;;;;;;;9.64;96.67;100414.28;10328120;28;20070;-74
2023/04/14 18:17:06;;;;;;;2.47;0.80;;;;;;;9.27;100.00;100412.63;10327855;28;20514;-74
2023/04/14 18:22:07;;;;;;;2.80;1.17;;;;;;;8.82;100.00;100414.06;10318153;28;20041;-74
2023/04/14 18:27:07;;;;;;;2.92;0.90;;;;;;;8.52;100.00;100414.38;10317174;28;20067;-75
2023/04/14 18:32:08;;;;;;;2.28;0.93;;;;;;;8.19;100.00;100413.59;10322623;28;20655;-74
2023/04/14 18:37:09;;;;;;;6.72;1.33;;;;;;;7.95;100.00;100424.56;10341268;28;20038;-74
2023/04/14 18:42:10;;;;;;;2.45;0.80;;;;;;;7.69;100.00;100429.34;10353868;28;20042;-74
2023/04/14 18:47:10;;;;;;;2.25;0.93;;;;;;;7.39;100.00;100426.91;10358098;28;20050;-74
2023/04/14 18:52:11;;;;;;;2.67;1.02;;;;;;;7.00;100.00;100429.13;10340436;28;20041;-74
2023/04/14 18:57:12;;;;;;;2.67;1.45;;;;;;;6.72;100.00;100431.06;10355035;28;20065;-74
2023/04/14 19:02:12;;;;;;;3.92;1.15;;;;;;;6.55;100.00;100440.53;10324851;28;20069;-74
2023/04/14 19:07:13;;;;;;;8.20;2.20;;;;;;;6.36;100.00;100450.69;10334786;28;20049;-73
2023/04/14 19:12:13;;;;;;;6.88;1.88;;;;;;;6.20;100.00;100455.00;10337243;28;20061;-74
2023/04/14 19:17:14;;;;;;;3.35;0.80;;;;;;;5.97;100.00;100459.69;10359372;28;20081;-73
2023/04/14 19:22:15;;;;;;;4.32;1.17;;;;;;;5.88;100.00;100462.63;10360843;28;20038;-73
2023/04/14 19:27:17;;;;;;;8.80;2.53;;;;;;;5.71;100.00;100460.72;10362113;28;20118;-73
2023/04/14 19:32:18;;;;;;;4.78;1.30;;;;;;;5.52;100.00;100474.28;10348227;28;20065;-74
2023/04/14 19:37:18;;;;;;;7.25;2.03;;;;;;;5.36;100.00;100473.34;10365070;28;20125;-74
2023/04/14 19:42:19;;;;;;;7.45;1.65;;;;;;;5.25;100.00;100477.84;10363264;28;20057;-74
2023/04/14 19:47:20;;;;;;;2.05;1.35;;;;;;;5.15;100.00;100472.88;10391883;28;20095;-74
2023/04/14 19:52:21;;;;;;;7.53;2.70;;;;;;;4.93;100.00;100479.28;10372824;28;20076;-73
2023/04/14 19:57:22;;;;;;;9.18;3.85;;;;;;;4.77;100.00;100476.50;10375811;28;20041;-74
2023/04/14 20:02:23;;;;;;;3.75;1.63;;;;;;;4.64;100.00;100480.88;10380602;28;20087;-74
2023/04/14 20:07:23;;;;;;;4.18;1.60;;;;;;;4.64;100.00;100480.00;10399762;28;20160;-74
2023/04/14 20:12:24;;;;;;;4.85;2.58;;;;;;;4.47;100.00;100482.41;10389472;28;20046;-73
2023/04/14 20:17:26;;;;;;;5.30;1.85;;;;;;;4.41;100.00;100490.63;10371224;28;20819;-74
2023/04/14 20:22:26;;;;;;;5.40;2.92;;;;;;;4.37;100.00;100490.34;10364552;28;20033;-74
2023/04/14 20:27:26;;;;;;;6.38;2.90;;;;;;;4.34;100.00;100488.44;10363159;28;20072;-73
2023/04/14 20:32:28;;;;;;;5.03;2.10;;;;;;;4.40;100.00;100491.44;10398734;28;20469;-74
2023/04/14 20:37:29;;;;;;;5.25;2.05;;;;;;;4.44;100.00;100489.06;10342782;28;20096;-74
2023/04/14 20:42:29;;;;;;;10.10;3.15;;;;;;;4.52;100.00;100487.84;10365000;28;20091;-73
2023/04/14 20:47:30;;;;;;;4.85;2.70;;;;;;;4.43;100.00;100488.16;10367670;28;20092;-73
2023/04/14 20:52:30;;;;;;;7.85;2.53;;;;;;;4.50;100.00;100498.16;10384789;28;20042;-73
2023/04/14 20:57:31;;;;;;;5.47;2.70;;;;;;;4.42;100.00;100494.16;10351250;28;20148;-74
2023/04/14 21:02:32;;;;;;;8.15;2.47;;;;;;;4.31;100.00;100502.91;10349677;28;20056;-74
2023/04/14 21:07:35;;;;;;;7.13;3.45;;;;;;;4.28;100.00;100495.81;10343478;28;20168;-74
2023/04/14 21:12:36;;;;;;;7.88;3.92;;;;;;;4.24;100.00;100488.63;10332808;28;20093;-74
2023/04/14 21:17:37;;;;;;;8.63;4.95;;;;;;;4.24;100.00;100483.44;10318704;28;20442;-74
2023/04/14 21:22:37;;;;;;;4.35;2.58;;;;;;;4.22;100.00;100488.53;10346611;28;20508;-74
2023/04/14 21:27:38;;;;;;;13.80;4.10;;;;;;;4.13;100.00;100489.59;10379185;28;20441;-74
2023/04/14 21:32:39;;;;;;;5.45;2.85;;;;;;;4.10;100.00;100496.34;10369055;28;20064;-73
2023/04/14 21:37:39;;;;;;;9.80;4.45;;;;;;;4.06;100.00;100496.94;10364582;28;20165;-73
2023/04/14 21:42:40;;;;;;;5.55;2.50;;;;;;;4.01;100.00;100500.91;10364967;28;20042;-75
2023/04/14 21:47:40;;;;;;;7.72;3.10;;;;;;;3.86;100.00;100507.63;10388734;28;20069;-76
2023/04/14 21:52:41;;;;;;;5.63;2.85;;;;;;;3.76;100.00;100499.22;10375551;28;20080;-73
2023/04/14 21:57:41;;;;;;;6.20;4.03;;;;;;;3.69;100.00;100507.38;10351087;28;20038;-74
2023/04/14 22:02:45;;;;;;;7.15;3.17;;;;;;;3.62;100.00;100505.16;10374296;28;20457;-74
2023/04/14 22:07:45;;;;;;;5.57;2.92;;;;;;;3.55;100.00;100503.84;10325122;28;20041;-73
2023/04/14 22:12:46;;;;;;;7.63;3.10;;;;;;;3.68;100.00;100510.75;10383872;28;20466;-74
2023/04/14 22:17:47;;;;;;;8.55;3.70;;;;;;;3.77;100.00;100500.16;10397227;28;20076;-73
2023/04/14 22:22:47;;;;;;;5.68;3.47;;;;;;;3.84;100.00;100507.53;10324002;28;20064;-73
2023/04/14 22:27:48;;;;;;;5.20;3.55;;;;;;;3.96;100.00;100502.28;10365000;28;20129;-73
2023/04/14 22:32:48;;;;;;;4.95;3.00;;;;;;;4.05;100.00;100504.63;10382393;28;20469;-74
2023/04/14 22:37:49;;;;;;;6.63;3.55;;;;;;;4.04;100.00;100503.72;10400388;28;20041;-74
2023/04/14 22:42:49;;;;;;;6.60;3.83;;;;;;;4.01;100.00;100512.97;10392929;28;20042;-73
2023/04/14 22:47:50;;;;;;;11.13;4.53;;;;;;;4.06;100.00;100504.72;10371241;28;20465;-74
2023/04/14 22:52:50;;;;;;;10.27;5.57;;;;;;;4.07;100.00;100508.22;10406091;28;20076;-73
2023/04/14 22:57:51;;;;;;;7.68;4.35;;;;;;;3.94;100.00;100509.06;10384002;28;20501;-74